createdAt,value
2022-12-22T00:00:33.016Z,99.99
2022-12-22T00:01:33.117Z,99.99
2022-12-22T00:02:33.148Z,99.99
2022-12-22T00:03:33.134Z,99.99
2022-12-22T00:04:32.949Z,99.99
2022-12-22T00:05:32.973Z,99.99
2022-12-22T00:06:32.921Z,99.99
2022-12-22T00:07:32.925Z,99.99
2022-12-22T00:08:32.895Z,99.99
2022-12-22T00:09:32.893Z,99.99
2022-12-22T00:10:32.852Z,99.99
2022-12-22T00:11:32.835Z,99.99
2022-12-22T00:12:32.824Z,99.99
2022-12-22T00:13:32.956Z,99.99
2022-12-22T00:14:32.804Z,99.99
2022-12-22T00:15:32.778Z,99.99
2022-12-22T00:16:32.850Z,99.99
2022-12-22T00:17:32.752Z,99.99
2022-12-22T00:18:32.770Z,99.99
2022-12-22T00:19:32.753Z,99.99
2022-12-22T00:20:32.745Z,99.99
2022-12-22T00:21:32.726Z,99.99
2022-12-22T00:22:32.711Z,99.99
2022-12-22T00:23:32.692Z,99.99
2022-12-22T00:24:32.650Z,99.99
2022-12-22T00:25:32.694Z,99.99
2022-12-22T00:26:32.655Z,99.99
2022-12-22T00:27:32.649Z,99.99
2022-12-22T00:28:32.612Z,99.99
2022-12-22T00:29:32.655Z,99.99
2022-12-22T00:30:32.721Z,99.99
2022-12-22T00:31:32.604Z,99.99
2022-12-22T00:32:32.676Z,99.99
2022-12-22T00:33:32.572Z,99.99
2022-12-22T00:34:32.956Z,99.99
2022-12-22T00:35:32.577Z,99.99
2022-12-22T00:36:32.523Z,99.99
2022-12-22T00:37:32.529Z,99.99
2022-12-22T00:38:32.527Z,99.99
2022-12-22T00:39:32.473Z,99.99
2022-12-22T00:40:32.470Z,99.99
2022-12-22T00:41:32.481Z,99.99
2022-12-22T00:42:32.475Z,99.99
2022-12-22T00:43:32.429Z,99.99
2022-12-22T00:44:32.390Z,99.99
2022-12-22T00:45:32.411Z,99.99
2022-12-22T00:46:41.109Z,99.99
2022-12-22T00:47:39.895Z,99.99
2022-12-22T00:48:39.927Z,99.99
2022-12-22T00:49:32.385Z,99.99
2022-12-22T00:50:32.325Z,99.99
2022-12-22T00:51:32.327Z,99.99
2022-12-22T00:52:32.303Z,99.99
2022-12-22T00:53:32.293Z,99.99
2022-12-22T00:54:32.256Z,99.99
2022-12-22T00:55:32.257Z,99.99
2022-12-22T00:56:32.223Z,99.99
2022-12-22T00:57:32.235Z,99.99
2022-12-22T00:58:32.198Z,99.99
2022-12-22T00:59:32.186Z,99.99
2022-12-22T01:00:32.246Z,99.99
2022-12-22T01:01:32.299Z,99.99
2022-12-22T01:02:32.323Z,99.99
2022-12-22T01:03:32.203Z,99.99
2022-12-22T01:04:32.130Z,99.99
2022-12-22T01:05:32.127Z,99.99
2022-12-22T01:06:32.108Z,99.99
2022-12-22T01:07:32.103Z,99.99
2022-12-22T01:08:32.074Z,99.99
2022-12-22T01:09:32.063Z,99.99
2022-12-22T01:10:32.072Z,99.99
2022-12-22T01:11:32.041Z,99.99
2022-12-22T01:12:34.731Z,99.99
2022-12-22T01:13:32.002Z,99.99
2022-12-22T01:14:31.996Z,99.99
2022-12-22T01:15:32.033Z,99.99
2022-12-22T01:16:32.032Z,99.99
2022-12-22T01:17:31.958Z,99.99
2022-12-22T01:18:31.931Z,99.99
2022-12-22T01:19:31.967Z,99.99
2022-12-22T01:20:31.919Z,99.99
2022-12-22T01:21:31.881Z,99.99
2022-12-22T01:22:31.883Z,99.99
2022-12-22T01:23:31.901Z,99.99
2022-12-22T01:24:31.850Z,99.99
2022-12-22T01:25:31.836Z,99.99
2022-12-22T01:26:31.820Z,99.99
2022-12-22T01:27:31.870Z,99.99
2022-12-22T01:28:31.787Z,99.99
2022-12-22T01:29:31.808Z,99.99
2022-12-22T01:30:31.791Z,99.99
2022-12-22T01:31:31.758Z,99.99
2022-12-22T01:32:31.745Z,99.99
2022-12-22T01:33:31.907Z,99.99
2022-12-22T01:34:31.705Z,99.99
2022-12-22T01:35:31.709Z,99.99
2022-12-22T01:36:31.697Z,99.99
2022-12-22T01:37:31.679Z,99.99
2022-12-22T01:38:31.694Z,99.99
2022-12-22T01:39:31.677Z,99.99
2022-12-22T01:40:31.640Z,99.99
2022-12-22T01:41:31.622Z,99.99
2022-12-22T01:42:31.612Z,99.99
2022-12-22T01:43:31.685Z,99.99
2022-12-22T01:44:31.600Z,99.99
2022-12-22T01:45:31.577Z,99.99
2022-12-22T01:46:31.632Z,99.99
2022-12-22T01:47:31.538Z,99.99
2022-12-22T01:48:31.577Z,99.99
2022-12-22T01:49:31.582Z,99.99
2022-12-22T01:50:31.531Z,99.99
2022-12-22T01:51:31.497Z,99.99
2022-12-22T01:52:31.492Z,99.99
2022-12-22T01:53:31.452Z,99.99
2022-12-22T01:54:31.444Z,99.99
2022-12-22T01:55:31.461Z,99.99
2022-12-22T01:56:31.444Z,99.99
2022-12-22T01:57:31.404Z,99.99
2022-12-22T01:58:31.395Z,99.99
2022-12-22T01:59:31.450Z,99.99
2022-12-22T02:00:31.362Z,99.99
2022-12-22T02:01:31.459Z,99.99
2022-12-22T02:02:31.447Z,99.99
2022-12-22T02:03:31.313Z,99.99
2022-12-22T02:04:31.309Z,99.99
2022-12-22T02:05:31.301Z,99.99
2022-12-22T02:06:31.297Z,99.99
2022-12-22T02:07:31.272Z,99.99
2022-12-22T02:08:31.259Z,99.99
2022-12-22T02:09:31.232Z,99.99
2022-12-22T02:10:31.236Z,99.99
2022-12-22T02:11:31.198Z,99.99
2022-12-22T02:12:31.187Z,99.99
2022-12-22T02:13:31.190Z,99.99
2022-12-22T02:14:31.176Z,99.99
2022-12-22T02:15:31.148Z,99.99
2022-12-22T02:16:31.180Z,99.99
2022-12-22T02:17:31.123Z,99.99
2022-12-22T02:18:31.152Z,99.99
2022-12-22T02:19:31.089Z,99.99
2022-12-22T02:20:31.086Z,99.99
2022-12-22T02:21:31.071Z,99.99
2022-12-22T02:22:31.047Z,99.99
2022-12-22T02:23:31.059Z,99.99
2022-12-22T02:24:31.032Z,99.99
2022-12-22T02:25:31.007Z,99.99
2022-12-22T02:26:30.993Z,99.99
2022-12-22T02:27:30.994Z,99.99
2022-12-22T02:28:30.976Z,99.99
2022-12-22T02:29:30.981Z,99.99
2022-12-22T02:30:30.963Z,99.99
2022-12-22T02:31:30.975Z,99.99
2022-12-22T02:32:30.913Z,99.99
2022-12-22T02:33:30.890Z,99.99
2022-12-22T02:34:30.921Z,99.99
2022-12-22T02:35:30.868Z,99.99
2022-12-22T02:36:30.852Z,99.99
2022-12-22T02:37:30.828Z,99.99
2022-12-22T02:38:30.824Z,99.99
2022-12-22T02:39:30.818Z,99.99
2022-12-22T02:40:34.432Z,99.99
2022-12-22T02:41:31.793Z,99.99
2022-12-22T02:42:30.778Z,99.99
2022-12-22T02:43:30.767Z,99.99
2022-12-22T02:44:30.743Z,99.99
2022-12-22T02:45:30.717Z,99.99
2022-12-22T02:46:30.768Z,99.99
2022-12-22T02:47:30.701Z,99.99
2022-12-22T02:48:30.696Z,99.99
2022-12-22T02:49:30.693Z,99.99
2022-12-22T02:50:30.664Z,99.99
2022-12-22T02:51:30.648Z,99.99
2022-12-22T02:52:30.634Z,99.99
2022-12-22T02:53:30.618Z,99.99
2022-12-22T02:54:30.617Z,99.99
2022-12-22T02:55:30.613Z,99.99
2022-12-22T02:56:30.599Z,99.99
2022-12-22T02:57:30.619Z,99.99
2022-12-22T02:58:30.551Z,99.99
2022-12-22T02:59:30.552Z,99.99
2022-12-22T03:00:30.527Z,99.99
2022-12-22T03:01:30.587Z,99.99
2022-12-22T03:02:30.628Z,99.99
2022-12-22T03:03:30.612Z,99.99
2022-12-22T03:04:30.504Z,99.99
2022-12-22T03:05:30.464Z,99.99
2022-12-22T03:06:30.449Z,99.99
2022-12-22T03:07:30.414Z,99.99
2022-12-22T03:08:30.429Z,99.99
2022-12-22T03:09:30.413Z,99.99
2022-12-22T03:10:30.387Z,99.99
2022-12-22T03:11:30.360Z,99.99
2022-12-22T03:12:38.083Z,99.99
2022-12-22T03:14:27.317Z,99.99
2022-12-22T03:15:27.273Z,99.99
2022-12-22T03:16:27.345Z,99.99
2022-12-22T03:17:27.259Z,99.99
2022-12-22T03:18:27.233Z,99.99
2022-12-22T03:19:27.247Z,99.99
2022-12-22T03:20:27.230Z,99.99
2022-12-22T03:21:27.182Z,99.99
2022-12-22T03:22:27.176Z,99.99
2022-12-22T03:23:27.160Z,99.99
2022-12-22T03:24:27.152Z,99.99
2022-12-22T03:25:27.137Z,99.99
2022-12-22T03:26:27.125Z,99.99
2022-12-22T03:27:27.116Z,99.99
2022-12-22T03:28:27.106Z,99.99
2022-12-22T03:29:27.078Z,99.99
2022-12-22T03:30:27.077Z,99.99
2022-12-22T03:31:27.139Z,99.99
2022-12-22T03:32:27.033Z,99.99
2022-12-22T03:33:27.021Z,99.99
2022-12-22T03:34:27.027Z,99.99
2022-12-22T03:35:26.991Z,99.99
2022-12-22T03:36:26.995Z,99.99
2022-12-22T03:37:26.998Z,99.99
2022-12-22T03:38:26.971Z,99.99
2022-12-22T03:39:26.972Z,99.99
2022-12-22T03:40:26.923Z,99.99
2022-12-22T03:41:26.922Z,99.99
2022-12-22T03:42:26.931Z,99.99
2022-12-22T03:43:26.896Z,99.99
2022-12-22T03:44:26.886Z,99.99
2022-12-22T03:45:26.897Z,99.99
2022-12-22T03:46:26.873Z,99.99
2022-12-22T03:47:26.856Z,99.99
2022-12-22T03:48:26.898Z,99.99
2022-12-22T03:49:26.809Z,99.99
2022-12-22T03:50:26.808Z,99.99
2022-12-22T03:51:26.812Z,99.99
2022-12-22T03:52:26.779Z,99.99
2022-12-22T03:53:26.750Z,99.99
2022-12-22T03:54:26.782Z,99.99
2022-12-22T03:55:26.710Z,99.99
2022-12-22T03:56:26.706Z,99.99
2022-12-22T03:57:26.763Z,99.99
2022-12-22T03:58:26.695Z,99.99
2022-12-22T03:59:26.689Z,99.99
2022-12-22T04:00:26.647Z,99.99
2022-12-22T04:01:26.751Z,99.99
2022-12-22T04:02:26.753Z,99.99
2022-12-22T04:03:26.658Z,99.99
2022-12-22T04:04:26.654Z,99.99
2022-12-22T04:05:26.573Z,99.99
2022-12-22T04:06:26.567Z,99.99
2022-12-22T04:07:26.558Z,99.99
2022-12-22T04:08:26.535Z,99.99
2022-12-22T04:09:26.581Z,99.99
2022-12-22T04:10:26.546Z,99.99
2022-12-22T04:11:26.507Z,99.99
2022-12-22T04:12:26.501Z,99.99
2022-12-22T04:13:26.458Z,99.99
2022-12-22T04:14:33.168Z,99.99
2022-12-22T04:15:27.478Z,99.99
2022-12-22T04:16:26.491Z,99.99
2022-12-22T04:17:26.432Z,99.99
2022-12-22T04:18:26.419Z,99.99
2022-12-22T04:19:26.421Z,99.99
2022-12-22T04:20:26.362Z,99.99
2022-12-22T04:21:26.343Z,99.99
2022-12-22T04:22:26.344Z,99.99
2022-12-22T04:23:26.321Z,99.99
2022-12-22T04:24:26.324Z,99.99
2022-12-22T04:25:26.305Z,99.99
2022-12-22T04:26:26.323Z,99.99
2022-12-22T04:27:26.263Z,99.99
2022-12-22T04:28:26.299Z,99.99
2022-12-22T04:29:26.251Z,99.99
2022-12-22T04:30:26.247Z,99.99
2022-12-22T04:31:26.263Z,99.99
2022-12-22T04:32:26.230Z,99.99
2022-12-22T04:33:26.209Z,99.99
2022-12-22T04:34:26.199Z,99.99
2022-12-22T04:35:26.192Z,99.99
2022-12-22T04:36:26.160Z,99.99
2022-12-22T04:37:26.160Z,99.99
2022-12-22T04:38:26.148Z,99.99
2022-12-22T04:39:26.118Z,99.99
2022-12-22T04:40:26.083Z,99.99
2022-12-22T04:41:26.063Z,99.99
2022-12-22T04:42:26.057Z,99.99
2022-12-22T04:43:26.037Z,99.99
2022-12-22T04:44:26.048Z,99.99
2022-12-22T04:45:26.009Z,99.99
2022-12-22T04:46:26.051Z,99.99
2022-12-22T04:47:25.995Z,99.99
2022-12-22T04:48:26.046Z,99.99
2022-12-22T04:49:25.976Z,99.99
2022-12-22T04:50:25.959Z,99.99
2022-12-22T04:51:25.939Z,99.99
2022-12-22T04:52:25.929Z,99.99
2022-12-22T04:53:25.951Z,99.99
2022-12-22T04:54:25.898Z,99.99
2022-12-22T04:55:25.885Z,99.99
2022-12-22T04:56:25.887Z,99.99
2022-12-22T04:57:25.861Z,99.99
2022-12-22T04:58:25.869Z,99.99
2022-12-22T04:59:25.889Z,99.99
2022-12-22T05:00:25.803Z,99.99
2022-12-22T05:01:25.863Z,99.99
2022-12-22T05:02:25.903Z,99.99
2022-12-22T05:03:25.822Z,99.99
2022-12-22T05:04:25.754Z,99.99
2022-12-22T05:05:25.745Z,99.99
2022-12-22T05:06:25.712Z,99.99
2022-12-22T05:07:25.738Z,99.99
2022-12-22T05:08:25.700Z,99.99
2022-12-22T05:09:25.695Z,99.99
2022-12-22T05:10:25.690Z,99.99
2022-12-22T05:11:25.668Z,99.99
2022-12-22T05:12:25.660Z,99.99
2022-12-22T05:13:25.605Z,99.99
2022-12-22T05:14:25.604Z,99.99
2022-12-22T05:15:25.609Z,99.99
2022-12-22T05:16:25.597Z,99.99
2022-12-22T05:17:25.596Z,99.99
2022-12-22T05:18:25.581Z,99.99
2022-12-22T05:19:30.551Z,99.99
2022-12-22T05:20:26.548Z,99.99
2022-12-22T05:21:25.507Z,99.99
2022-12-22T05:22:25.498Z,99.99
2022-12-22T05:23:25.469Z,99.99
2022-12-22T05:24:25.515Z,99.99
2022-12-22T05:25:28.496Z,99.99
2022-12-22T05:26:26.477Z,99.99
2022-12-22T05:27:25.413Z,99.99
2022-12-22T05:28:25.413Z,99.99
2022-12-22T05:29:25.451Z,99.99
2022-12-22T05:30:26.122Z,99.99
2022-12-22T05:31:25.476Z,99.99
2022-12-22T05:32:25.336Z,99.99
2022-12-22T05:33:25.338Z,99.99
2022-12-22T05:34:25.330Z,99.99
2022-12-22T05:35:25.308Z,99.99
2022-12-22T05:36:25.282Z,99.99
2022-12-22T05:37:25.294Z,99.99
2022-12-22T05:38:25.309Z,99.99
2022-12-22T05:39:25.254Z,99.99
2022-12-22T05:40:25.256Z,99.99
2022-12-22T05:41:25.245Z,99.99
2022-12-22T05:42:25.203Z,99.99
2022-12-22T05:43:25.229Z,99.99
2022-12-22T05:44:25.252Z,99.99
2022-12-22T05:45:25.160Z,99.99
2022-12-22T05:46:25.204Z,99.99
2022-12-22T05:47:25.134Z,99.99
2022-12-22T05:48:30.878Z,99.99
2022-12-22T05:49:26.125Z,99.99
2022-12-22T05:50:25.109Z,99.99
2022-12-22T05:51:25.108Z,99.99
2022-12-22T05:52:25.060Z,99.99
2022-12-22T05:53:25.039Z,99.99
2022-12-22T05:54:25.054Z,99.99
2022-12-22T05:55:25.022Z,99.99
2022-12-22T05:56:25.045Z,99.99
2022-12-22T05:57:25.015Z,99.99
2022-12-22T05:58:25.015Z,99.99
2022-12-22T05:59:24.959Z,99.99
2022-12-22T06:00:24.954Z,99.99
2022-12-22T06:01:24.972Z,99.99
2022-12-22T06:02:25.100Z,99.99
2022-12-22T06:03:25.016Z,99.99
2022-12-22T06:04:24.978Z,99.99
2022-12-22T06:05:24.895Z,99.99
2022-12-22T06:06:24.887Z,99.99
2022-12-22T06:07:24.849Z,99.99
2022-12-22T06:08:24.862Z,99.99
2022-12-22T06:09:24.842Z,99.99
2022-12-22T06:10:24.834Z,99.99
2022-12-22T06:11:24.800Z,99.99
2022-12-22T06:12:24.787Z,99.99
2022-12-22T06:13:24.775Z,99.99
2022-12-22T06:14:24.810Z,99.99
2022-12-22T06:15:24.754Z,99.99
2022-12-22T06:16:24.808Z,99.99
2022-12-22T06:17:24.856Z,99.99
2022-12-22T06:18:24.732Z,99.99
2022-12-22T06:19:24.716Z,99.99
2022-12-22T06:20:24.690Z,99.99
2022-12-22T06:21:24.792Z,99.99
2022-12-22T06:22:24.658Z,99.99
2022-12-22T06:23:24.623Z,99.99
2022-12-22T06:24:24.697Z,99.99
2022-12-22T06:25:24.611Z,99.99
2022-12-22T06:26:24.596Z,99.99
2022-12-22T06:27:24.629Z,99.99
2022-12-22T06:28:24.585Z,99.99
2022-12-22T06:29:24.555Z,99.99
2022-12-22T06:30:30.969Z,99.99
2022-12-22T06:31:25.551Z,99.99
2022-12-22T06:32:24.503Z,99.99
2022-12-22T06:33:24.520Z,99.99
2022-12-22T06:34:24.487Z,99.99
2022-12-22T06:35:24.495Z,99.99
2022-12-22T06:36:24.444Z,99.99
2022-12-22T06:37:24.436Z,99.99
2022-12-22T06:38:24.431Z,99.99
2022-12-22T06:39:24.431Z,99.99
2022-12-22T06:40:24.398Z,99.99
2022-12-22T06:41:24.384Z,99.99
2022-12-22T06:42:24.377Z,99.99
2022-12-22T06:43:24.401Z,99.99
2022-12-22T06:44:24.369Z,99.99
2022-12-22T06:45:24.326Z,99.99
2022-12-22T06:46:24.401Z,99.99
2022-12-22T06:47:24.297Z,99.99
2022-12-22T06:48:24.292Z,99.99
2022-12-22T06:49:24.289Z,99.99
2022-12-22T06:50:24.248Z,99.99
2022-12-22T06:51:24.257Z,99.99
2022-12-22T06:52:24.223Z,99.99
2022-12-22T06:53:24.205Z,99.99
2022-12-22T06:54:26.472Z,99.99
2022-12-22T06:55:24.174Z,99.99
2022-12-22T06:56:24.181Z,99.99
2022-12-22T06:57:24.188Z,99.99
2022-12-22T06:58:24.172Z,99.99
2022-12-22T06:59:24.159Z,99.99
2022-12-22T07:00:24.135Z,99.99
2022-12-22T07:01:24.228Z,99.99
2022-12-22T07:02:24.181Z,99.99
2022-12-22T07:03:24.200Z,99.99
2022-12-22T07:04:24.083Z,99.99
2022-12-22T07:05:24.071Z,99.99
2022-12-22T07:06:24.052Z,99.99
2022-12-22T07:07:24.012Z,99.99
2022-12-22T07:08:23.999Z,99.99
2022-12-22T07:09:24.005Z,99.99
2022-12-22T07:10:24.001Z,99.99
2022-12-22T07:11:23.994Z,99.99
2022-12-22T07:12:24.013Z,99.99
2022-12-22T07:13:23.979Z,99.99
2022-12-22T07:14:23.920Z,99.99
2022-12-22T07:15:23.901Z,99.99
2022-12-22T07:16:23.968Z,99.99
2022-12-22T07:17:23.918Z,99.99
2022-12-22T07:18:23.888Z,99.99
2022-12-22T07:19:23.858Z,99.99
2022-12-22T07:20:23.833Z,99.99
2022-12-22T07:21:23.822Z,99.99
2022-12-22T07:22:29.563Z,99.99
2022-12-22T07:23:24.810Z,99.99
2022-12-22T07:24:23.910Z,99.99
2022-12-22T07:25:23.757Z,99.99
2022-12-22T07:26:23.762Z,99.99
2022-12-22T07:27:23.759Z,99.99
2022-12-22T07:28:23.728Z,99.99
2022-12-22T07:29:23.754Z,99.99
2022-12-22T07:30:23.699Z,99.99
2022-12-22T07:31:38.367Z,99.99
2022-12-22T07:32:23.703Z,99.99
2022-12-22T07:33:23.649Z,99.99
2022-12-22T07:34:23.673Z,99.99
2022-12-22T07:35:23.633Z,99.99
2022-12-22T07:36:23.586Z,99.99
2022-12-22T07:37:23.598Z,99.99
2022-12-22T07:38:23.578Z,99.99
2022-12-22T07:39:23.592Z,99.99
2022-12-22T07:40:23.566Z,99.99
2022-12-22T07:41:23.529Z,99.99
2022-12-22T07:42:23.520Z,99.99
2022-12-22T07:43:23.499Z,99.99
2022-12-22T07:44:23.538Z,99.99
2022-12-22T07:45:23.519Z,99.99
2022-12-22T07:46:23.531Z,99.99
2022-12-22T07:47:23.447Z,99.99
2022-12-22T07:48:23.425Z,99.99
2022-12-22T07:49:23.415Z,99.99
2022-12-22T07:50:23.462Z,99.99
2022-12-22T07:51:23.393Z,99.99
2022-12-22T07:52:23.380Z,99.99
2022-12-22T07:53:23.390Z,99.99
2022-12-22T07:54:23.344Z,99.99
2022-12-22T07:55:23.322Z,99.99
2022-12-22T07:56:23.332Z,99.99
2022-12-22T07:57:23.322Z,99.99
2022-12-22T07:58:23.312Z,99.99
2022-12-22T07:59:23.272Z,99.99
2022-12-22T08:00:23.260Z,99.99
2022-12-22T08:01:23.292Z,99.99
2022-12-22T08:02:23.458Z,99.99
2022-12-22T08:03:23.288Z,99.99
2022-12-22T08:04:23.337Z,99.99
2022-12-22T08:05:23.203Z,99.99
2022-12-22T08:06:23.172Z,99.99
2022-12-22T08:07:23.206Z,99.99
2022-12-22T08:08:23.245Z,99.99
2022-12-22T08:09:23.224Z,99.99
2022-12-22T08:10:23.174Z,99.99
2022-12-22T08:11:23.112Z,99.99
2022-12-22T08:12:23.096Z,99.99
2022-12-22T08:13:23.147Z,99.99
2022-12-22T08:14:23.107Z,99.99
2022-12-22T08:15:23.067Z,99.99
2022-12-22T08:16:23.096Z,99.99
2022-12-22T08:17:23.037Z,99.99
2022-12-22T08:18:23.021Z,99.99
2022-12-22T08:19:23.012Z,99.99
2022-12-22T08:20:22.987Z,99.99
2022-12-22T08:21:22.959Z,99.99
2022-12-22T08:22:23.038Z,99.99
2022-12-22T08:23:22.958Z,99.99
2022-12-22T08:24:22.946Z,99.99
2022-12-22T08:25:22.948Z,99.99
2022-12-22T08:26:22.902Z,99.99
2022-12-22T08:27:26.165Z,99.99
2022-12-22T08:28:22.885Z,99.99
2022-12-22T08:29:22.940Z,99.99
2022-12-22T08:30:22.846Z,99.99
2022-12-22T08:31:22.864Z,99.99
2022-12-22T08:32:22.837Z,99.99
2022-12-22T08:33:22.811Z,99.99
2022-12-22T08:34:22.771Z,99.99
2022-12-22T08:35:22.804Z,99.99
2022-12-22T08:36:22.780Z,99.99
2022-12-22T08:37:22.744Z,99.99
2022-12-22T08:38:22.738Z,99.99
2022-12-22T08:39:22.711Z,99.99
2022-12-22T08:40:22.688Z,99.99
2022-12-22T08:41:22.693Z,99.99
2022-12-22T08:42:22.709Z,99.99
2022-12-22T08:43:22.709Z,99.99
2022-12-22T08:44:22.643Z,99.99
2022-12-22T08:45:22.645Z,99.99
2022-12-22T08:46:22.682Z,99.99
2022-12-22T08:47:22.667Z,99.99
2022-12-22T08:48:22.598Z,99.99
2022-12-22T08:49:22.575Z,99.99
2022-12-22T08:50:22.617Z,99.99
2022-12-22T08:51:22.542Z,99.99
2022-12-22T08:52:22.546Z,99.99
2022-12-22T08:53:54.000Z,99.99
2022-12-22T08:54:23.534Z,99.99
2022-12-22T08:55:22.500Z,99.99
2022-12-22T08:56:22.483Z,99.99
2022-12-22T08:57:22.485Z,99.99
2022-12-22T08:58:22.460Z,99.99
2022-12-22T08:59:22.433Z,99.99
2022-12-22T09:00:22.536Z,99.99
2022-12-22T09:01:22.503Z,99.99
2022-12-22T09:02:22.565Z,99.99
2022-12-22T09:03:22.434Z,99.99
2022-12-22T09:04:22.370Z,99.99
2022-12-22T09:05:22.362Z,99.99
2022-12-22T09:06:27.031Z,99.99
2022-12-22T09:07:23.329Z,99.99
2022-12-22T09:08:22.296Z,99.99
2022-12-22T09:09:22.328Z,99.99
2022-12-22T09:10:22.388Z,99.99
2022-12-22T09:11:22.263Z,99.99
2022-12-22T09:12:22.283Z,99.99
2022-12-22T09:13:22.270Z,99.99
2022-12-22T09:14:22.217Z,99.99
2022-12-22T09:15:22.233Z,99.99
2022-12-22T09:16:22.248Z,99.99
2022-12-22T09:18:45.149Z,99.99
2022-12-22T09:19:44.779Z,99.99
2022-12-22T09:20:44.661Z,99.99
2022-12-22T09:21:44.620Z,99.99
2022-12-22T09:22:44.660Z,99.99
2022-12-22T09:23:44.574Z,99.99
2022-12-22T09:24:44.627Z,99.99
2022-12-22T09:25:44.601Z,99.99
2022-12-22T09:26:44.678Z,99.99
2022-12-22T09:27:44.541Z,99.99
2022-12-22T09:28:49.933Z,99.99
2022-12-22T09:29:45.627Z,99.99
2022-12-22T09:30:44.643Z,99.99
2022-12-22T09:31:44.580Z,99.99
2022-12-22T09:32:44.491Z,99.99
2022-12-22T09:33:44.877Z,99.99
2022-12-22T09:34:44.453Z,99.99
2022-12-22T09:35:44.428Z,99.99
2022-12-22T09:36:44.465Z,99.99
2022-12-22T09:37:44.489Z,99.99
2022-12-22T09:38:44.411Z,99.99
2022-12-22T09:39:44.433Z,99.99
2022-12-22T09:40:44.359Z,99.99
2022-12-22T09:41:44.372Z,99.99
2022-12-22T09:42:44.315Z,99.99
2022-12-22T09:43:44.374Z,99.99
2022-12-22T09:46:06.097Z,99.99
2022-12-22T09:48:25.227Z,99.99
2022-12-22T09:49:25.293Z,99.99
2022-12-22T09:50:25.354Z,99.99
2022-12-22T09:51:27.430Z,99.99
2022-12-22T09:52:25.138Z,99.99
2022-12-22T09:53:25.225Z,99.99
2022-12-22T09:54:25.160Z,99.99
2022-12-22T09:55:25.354Z,99.99
2022-12-22T09:56:25.080Z,99.99
2022-12-22T09:57:25.202Z,99.99
2022-12-22T09:58:26.698Z,99.99
2022-12-22T09:59:25.051Z,99.99
2022-12-22T10:00:25.147Z,99.99
2022-12-22T10:01:25.102Z,99.99
2022-12-22T10:02:25.110Z,99.99
2022-12-22T10:03:25.096Z,99.99
2022-12-22T10:04:24.980Z,99.99
2022-12-22T10:05:25.041Z,99.99
2022-12-22T10:06:24.964Z,99.99
2022-12-22T10:07:25.084Z,99.99
2022-12-22T10:08:24.950Z,99.99
2022-12-22T10:09:48.733Z,99.99
2022-12-22T10:10:25.877Z,99.99
2022-12-22T10:11:24.875Z,99.99
2022-12-22T10:12:24.868Z,99.99
2022-12-22T10:13:24.850Z,99.99
2022-12-22T10:14:24.846Z,99.99
2022-12-22T10:15:24.844Z,99.99
2022-12-22T10:16:24.928Z,99.99
2022-12-22T10:17:25.339Z,99.99
2022-12-22T10:18:25.116Z,99.99
2022-12-22T10:19:24.796Z,99.99
2022-12-22T10:20:24.786Z,99.99
2022-12-22T10:21:24.744Z,99.99
2022-12-22T10:22:24.729Z,99.99
2022-12-22T10:23:24.707Z,99.99
2022-12-22T10:24:24.769Z,99.99
2022-12-22T10:25:24.683Z,99.99
2022-12-22T10:26:29.724Z,99.99
2022-12-22T10:27:29.016Z,99.99
2022-12-22T10:28:24.797Z,99.99
2022-12-22T10:29:24.683Z,99.99
2022-12-22T10:30:24.698Z,99.99
2022-12-22T10:31:24.651Z,99.99
2022-12-22T10:32:24.703Z,99.99
2022-12-22T10:33:24.574Z,99.99
2022-12-22T10:34:24.837Z,99.99
2022-12-22T10:35:24.637Z,99.99
2022-12-22T10:36:24.643Z,99.99
2022-12-22T10:37:24.547Z,99.99
2022-12-22T10:38:24.524Z,99.99
2022-12-22T10:39:24.615Z,99.99
2022-12-22T10:40:24.553Z,99.99
2022-12-22T10:41:24.523Z,99.99
2022-12-22T10:42:24.471Z,99.99
2022-12-22T10:43:24.440Z,99.99
2022-12-22T10:44:24.588Z,99.99
2022-12-22T10:45:24.418Z,99.99
2022-12-22T10:46:24.569Z,99.99
2022-12-22T10:47:24.683Z,99.99
2022-12-22T10:48:24.379Z,99.99
2022-12-22T10:49:24.383Z,99.99
2022-12-22T10:50:24.422Z,99.99
2022-12-22T10:51:24.349Z,99.99
2022-12-22T10:52:29.989Z,99.99
2022-12-22T10:53:25.338Z,99.99
2022-12-22T10:54:24.343Z,99.99
2022-12-22T10:55:24.305Z,99.99
2022-12-22T10:56:24.339Z,99.99
2022-12-22T10:57:24.395Z,99.99
2022-12-22T10:58:24.240Z,99.99
2022-12-22T10:59:24.238Z,99.99
2022-12-22T11:00:24.371Z,99.99
2022-12-22T11:01:24.434Z,99.99
2022-12-22T11:02:24.488Z,99.99
2022-12-22T11:03:24.711Z,99.99
2022-12-22T11:04:24.325Z,99.99
2022-12-22T11:05:24.200Z,99.99
2022-12-22T11:06:25.964Z,99.99
2022-12-22T11:07:24.157Z,99.99
2022-12-22T11:08:24.118Z,99.99
2022-12-22T11:09:33.877Z,99.95
2022-12-22T11:10:25.245Z,99.99
2022-12-22T11:11:24.063Z,97.82
2022-12-22T11:12:24.038Z,95.78
2022-12-22T11:13:24.039Z,96.75
2022-12-22T11:14:24.102Z,99.70
2022-12-22T11:15:24.891Z,97.40
2022-12-22T11:16:24.074Z,98.32
2022-12-22T11:17:23.947Z,98.00
2022-12-22T11:18:23.999Z,99.99
2022-12-22T11:19:24.002Z,99.63
2022-12-22T11:20:23.933Z,98.65
2022-12-22T11:21:24.712Z,99.99
2022-12-22T11:22:23.885Z,99.99
2022-12-22T11:23:23.878Z,99.99
2022-12-22T11:24:23.854Z,99.99
2022-12-22T11:25:23.845Z,99.99
2022-12-22T11:26:23.819Z,99.99
2022-12-22T11:27:23.846Z,99.99
2022-12-22T11:28:23.794Z,99.99
2022-12-22T11:29:23.774Z,99.99
2022-12-22T11:30:23.774Z,99.99
2022-12-22T11:31:23.872Z,99.99
2022-12-22T11:32:23.763Z,99.99
2022-12-22T11:33:23.744Z,99.99
2022-12-22T11:34:23.723Z,99.02
2022-12-22T11:35:23.693Z,98.77
2022-12-22T11:36:23.741Z,97.38
2022-12-22T11:37:23.661Z,98.65
2022-12-22T11:38:23.637Z,98.90
2022-12-22T11:39:23.641Z,98.65
2022-12-22T11:40:23.696Z,97.74
2022-12-22T11:41:23.615Z,98.86
2022-12-22T11:42:23.608Z,97.42
2022-12-22T11:43:23.571Z,96.92
2022-12-22T11:44:23.567Z,96.66
2022-12-22T11:45:23.577Z,98.49
2022-12-22T11:46:23.648Z,97.52
2022-12-22T11:47:23.619Z,98.24
2022-12-22T11:48:23.518Z,99.05
2022-12-22T11:49:23.486Z,98.49
2022-12-22T11:50:59.215Z,98.02
2022-12-22T11:51:27.515Z,97.50
2022-12-22T11:52:23.442Z,98.94
2022-12-22T11:53:23.444Z,99.76
2022-12-22T11:54:23.444Z,99.96
2022-12-22T11:55:23.417Z,99.86
2022-12-22T11:56:23.467Z,99.35
2022-12-22T11:57:23.367Z,99.55
2022-12-22T11:58:23.371Z,99.15
2022-12-22T11:59:23.361Z,99.99
2022-12-22T12:00:32.637Z,98.58
2022-12-22T12:01:26.379Z,98.90
2022-12-22T12:02:23.432Z,98.33
2022-12-22T12:03:23.500Z,98.22
2022-12-22T12:04:23.414Z,98.74
2022-12-22T12:05:23.265Z,97.91
2022-12-22T12:06:23.259Z,97.40
2022-12-22T12:07:25.967Z,97.50
2022-12-22T12:08:23.226Z,98.07
2022-12-22T12:09:23.227Z,97.87
2022-12-22T12:10:23.231Z,98.38
2022-12-22T12:11:23.186Z,98.07
2022-12-22T12:12:23.190Z,98.12
2022-12-22T12:13:37.091Z,97.30
2022-12-22T12:15:34.431Z,98.47
2022-12-22T12:16:34.492Z,98.58
2022-12-22T12:17:41.940Z,98.58
2022-12-22T12:18:43.127Z,97.45
2022-12-22T12:19:41.911Z,97.71
2022-12-22T12:20:41.900Z,98.33
2022-12-22T12:21:41.882Z,97.40
2022-12-22T12:22:41.856Z,98.63
2022-12-22T12:23:34.343Z,98.43
2022-12-22T12:24:34.377Z,97.45
2022-12-22T12:25:34.341Z,97.65
2022-12-22T12:26:34.317Z,98.78
2022-12-22T12:27:34.284Z,98.33
2022-12-22T12:28:34.293Z,98.02
2022-12-22T12:29:34.250Z,98.22
2022-12-22T12:30:38.845Z,98.53
2022-12-22T12:31:34.255Z,97.09
2022-12-22T12:32:34.223Z,97.40
2022-12-22T12:33:34.184Z,97.30
2022-12-22T12:34:34.227Z,96.69
2022-12-22T12:35:34.160Z,97.50
2022-12-22T12:36:34.159Z,98.22
2022-12-22T12:37:34.157Z,98.33
2022-12-22T12:39:35.435Z,99.04
2022-12-22T12:40:34.112Z,98.33
2022-12-22T12:41:34.111Z,98.83
2022-12-22T12:42:34.057Z,96.99
2022-12-22T12:43:34.122Z,97.09
2022-12-22T12:44:34.064Z,97.40
2022-12-22T12:45:34.052Z,97.50
2022-12-22T12:46:34.067Z,97.09
2022-12-22T12:47:34.030Z,96.79
2022-12-22T12:48:33.987Z,97.61
2022-12-22T12:49:34.037Z,97.25
2022-12-22T12:50:33.983Z,97.46
2022-12-22T12:51:33.974Z,96.95
2022-12-22T12:52:33.983Z,96.54
2022-12-22T12:53:33.991Z,95.51
2022-12-22T12:54:33.942Z,95.00
2022-12-22T12:55:33.927Z,95.31
2022-12-22T12:56:33.887Z,95.21
2022-12-22T12:57:33.884Z,95.66
2022-12-22T12:58:33.845Z,95.97
2022-12-22T12:59:33.828Z,96.07